createdAt,value
2018-11-14T00:00:18.437Z,84.18
2018-11-14T00:01:18.412Z,83.87
2018-11-14T00:02:18.397Z,83.56
2018-11-14T00:03:18.409Z,83.98
2018-11-14T00:04:18.377Z,85.41
2018-11-14T00:05:18.362Z,85.21
2018-11-14T00:06:18.363Z,84.22
2018-11-14T00:07:18.341Z,84.74
2018-11-14T00:08:18.354Z,85.21
2018-11-14T00:09:18.320Z,85.41
2018-11-14T00:10:18.929Z,84.84
2018-11-14T00:11:18.333Z,84.80
2018-11-14T00:12:18.293Z,84.90
2018-11-14T00:13:18.297Z,85.31
2018-11-14T00:14:18.264Z,84.49
2018-11-14T00:15:18.254Z,85.31
2018-11-14T00:16:18.242Z,84.39
2018-11-14T00:17:18.233Z,85.11
2018-11-14T00:18:18.254Z,85.25
2018-11-14T00:19:18.269Z,85.31
2018-11-14T00:20:18.200Z,85.41
2018-11-14T00:21:18.190Z,85.46
2018-11-14T00:22:18.176Z,84.01
2018-11-14T00:23:18.188Z,84.49
2018-11-14T00:24:18.217Z,84.69
2018-11-14T00:25:18.141Z,84.53
2018-11-14T00:26:18.131Z,85.25
2018-11-14T00:27:18.118Z,85.31
2018-11-14T00:28:18.145Z,85.11
2018-11-14T00:29:18.102Z,85.11
2018-11-14T00:30:18.335Z,84.94
2018-11-14T00:31:18.075Z,85.25
2018-11-14T00:32:18.064Z,85.35
2018-11-14T00:33:18.081Z,85.35
2018-11-14T00:34:18.071Z,84.63
2018-11-14T00:35:18.033Z,85.14
2018-11-14T00:36:18.031Z,85.46
2018-11-14T00:37:18.011Z,84.94
2018-11-14T00:38:18.021Z,85.66
2018-11-14T00:39:17.985Z,85.46
2018-11-14T00:40:17.973Z,85.66
2018-11-14T00:41:17.967Z,85.97
2018-11-14T00:42:17.966Z,85.46
2018-11-14T00:43:17.966Z,85.76
2018-11-14T00:44:17.934Z,86.38
2018-11-14T00:45:17.919Z,86.17
2018-11-14T00:46:17.912Z,86.17
2018-11-14T00:47:17.900Z,86.27
2018-11-14T00:48:17.919Z,86.07
2018-11-14T00:49:17.891Z,86.79
2018-11-14T00:50:17.868Z,86.27
2018-11-14T00:51:17.855Z,86.07
2018-11-14T00:52:17.845Z,86.17
2018-11-14T00:53:17.857Z,86.21
2018-11-14T00:54:17.821Z,85.66
2018-11-14T00:55:17.840Z,86.07
2018-11-14T00:56:17.800Z,85.76
2018-11-14T00:57:17.789Z,85.97
2018-11-14T00:58:17.803Z,86.32
2018-11-14T00:59:17.766Z,86.89
2018-11-14T01:00:17.756Z,86.58
2018-11-14T01:01:17.772Z,86.62
2018-11-14T01:02:17.733Z,86.32
2018-11-14T01:03:17.747Z,86.52
2018-11-14T01:04:17.712Z,86.58
2018-11-14T01:05:17.702Z,86.11
2018-11-14T01:06:17.689Z,86.62
2018-11-14T01:07:17.705Z,86.68
2018-11-14T01:08:17.673Z,87.30
2018-11-14T01:09:17.692Z,86.48
2018-11-14T01:10:17.646Z,85.97
2018-11-14T01:11:17.634Z,86.83
2018-11-14T01:12:17.625Z,86.58
2018-11-14T01:13:17.694Z,86.21
2018-11-14T01:14:17.624Z,86.42
2018-11-14T01:15:17.589Z,86.83
2018-11-14T01:16:17.580Z,86.62
2018-11-14T01:17:17.572Z,86.72
2018-11-14T01:18:17.558Z,86.83
2018-11-14T01:19:17.578Z,87.34
2018-11-14T01:20:17.534Z,86.62
2018-11-14T01:21:17.523Z,86.93
2018-11-14T01:22:17.513Z,87.13
2018-11-14T01:23:17.500Z,87.45
2018-11-14T01:24:17.512Z,87.34
2018-11-14T01:25:17.480Z,87.34
2018-11-14T01:26:17.476Z,87.20
2018-11-14T01:27:17.456Z,87.34
2018-11-14T01:28:17.444Z,87.45
2018-11-14T01:29:17.455Z,86.83
2018-11-14T01:30:17.423Z,87.55
2018-11-14T01:31:17.410Z,87.34
2018-11-14T01:32:17.409Z,86.79
2018-11-14T01:33:17.388Z,87.24
2018-11-14T01:34:17.398Z,87.45
2018-11-14T01:35:17.364Z,86.83
2018-11-14T01:36:17.355Z,87.04
2018-11-14T01:37:17.342Z,86.72
2018-11-14T01:38:17.337Z,86.62
2018-11-14T01:39:17.345Z,87.34
2018-11-14T01:40:17.307Z,87.75
2018-11-14T01:41:17.296Z,87.13
2018-11-14T01:42:17.284Z,87.04
2018-11-14T01:43:17.274Z,87.34
2018-11-14T01:44:17.290Z,87.13
2018-11-14T01:45:17.261Z,87.24
2018-11-14T01:46:17.249Z,87.55
2018-11-14T01:47:17.230Z,87.24
2018-11-14T01:48:17.218Z,87.55
2018-11-14T01:49:17.233Z,87.34
2018-11-14T01:50:17.194Z,87.45
2018-11-14T01:51:17.184Z,86.72
2018-11-14T01:52:17.181Z,87.34
2018-11-14T01:53:17.161Z,87.45
2018-11-14T01:54:17.176Z,87.18
2018-11-14T01:55:17.136Z,87.07
2018-11-14T01:56:17.126Z,87.49
2018-11-14T01:57:17.120Z,87.38
2018-11-14T01:58:17.105Z,87.59
2018-11-14T01:59:17.116Z,87.49
2018-11-14T02:00:17.082Z,87.38
2018-11-14T02:01:17.068Z,87.49
2018-11-14T02:02:17.058Z,87.69
2018-11-14T02:03:17.047Z,87.49
2018-11-14T02:04:17.064Z,87.07
2018-11-14T02:05:17.023Z,86.97
2018-11-14T02:06:17.011Z,87.79
2018-11-14T02:07:17.002Z,87.79
2018-11-14T02:08:16.990Z,87.28
2018-11-14T02:09:17.003Z,87.49
2018-11-14T02:10:16.980Z,87.49
2018-11-14T02:11:16.955Z,87.38
2018-11-14T02:12:16.943Z,87.28
2018-11-14T02:13:16.934Z,87.90
2018-11-14T02:14:16.944Z,87.90
2018-11-14T02:15:16.910Z,87.28
2018-11-14T02:16:16.907Z,86.87
2018-11-14T02:17:16.887Z,87.59
2018-11-14T02:18:16.875Z,87.49
2018-11-14T02:19:16.889Z,87.18
2018-11-14T02:20:16.857Z,87.28
2018-11-14T02:21:16.843Z,87.49
2018-11-14T02:22:16.832Z,87.42
2018-11-14T02:23:16.829Z,87.69
2018-11-14T02:24:16.833Z,87.59
2018-11-14T02:25:16.804Z,87.38
2018-11-14T02:26:16.787Z,87.63
2018-11-14T02:27:16.773Z,87.49
2018-11-14T02:28:16.761Z,87.59
2018-11-14T02:29:16.783Z,87.18
2018-11-14T02:30:16.748Z,87.73
2018-11-14T02:31:16.738Z,86.91
2018-11-14T02:32:16.717Z,87.42
2018-11-14T02:33:16.707Z,87.73
2018-11-14T02:34:16.719Z,87.63
2018-11-14T02:35:16.683Z,87.94
2018-11-14T02:36:16.672Z,87.90
2018-11-14T02:37:16.714Z,87.69
2018-11-14T02:38:16.654Z,87.90
2018-11-14T02:39:16.660Z,87.84
2018-11-14T02:40:16.630Z,87.12
2018-11-14T02:41:16.614Z,87.38
2018-11-14T02:42:16.603Z,87.32
2018-11-14T02:43:16.603Z,87.69
2018-11-14T02:44:16.617Z,87.49
2018-11-14T02:45:16.582Z,87.73
2018-11-14T02:46:16.556Z,87.59
2018-11-14T02:47:16.547Z,87.94
2018-11-14T02:48:16.536Z,87.28
2018-11-14T02:49:16.545Z,87.73
2018-11-14T02:50:16.523Z,87.49
2018-11-14T02:51:16.503Z,87.63
2018-11-14T02:52:16.486Z,87.73
2018-11-14T02:53:16.477Z,87.49
2018-11-14T02:54:16.488Z,87.32
2018-11-14T02:55:16.453Z,87.32
2018-11-14T02:56:16.449Z,86.91
2018-11-14T02:57:16.430Z,87.32
2018-11-14T02:58:16.420Z,86.91
2018-11-14T02:59:16.430Z,87.01
2018-11-14T03:00:16.398Z,87.22
2018-11-14T03:01:16.386Z,87.32
2018-11-14T03:02:16.381Z,87.01
2018-11-14T03:03:16.363Z,87.63
2018-11-14T03:04:16.375Z,87.73
2018-11-14T03:05:16.340Z,87.52
2018-11-14T03:06:16.330Z,87.12
2018-11-14T03:07:16.317Z,87.01
2018-11-14T03:08:16.315Z,87.42
2018-11-14T03:09:16.318Z,87.32
2018-11-14T03:10:16.281Z,87.12
2018-11-14T03:11:16.271Z,87.84
2018-11-14T03:12:16.368Z,87.94
2018-11-14T03:13:16.250Z,87.63
2018-11-14T03:14:16.275Z,87.32
2018-11-14T03:15:16.227Z,87.73
2018-11-14T03:16:16.215Z,87.73
2018-11-14T03:17:16.205Z,87.73
2018-11-14T03:18:16.193Z,87.22
2018-11-14T03:19:16.184Z,87.94
2018-11-14T03:20:16.199Z,87.63
2018-11-14T03:21:16.174Z,87.63
2018-11-14T03:22:16.147Z,87.63
2018-11-14T03:23:16.135Z,87.52
2018-11-14T03:24:16.124Z,87.73
2018-11-14T03:25:16.137Z,87.52
2018-11-14T03:26:16.100Z,87.01
2018-11-14T03:27:16.099Z,86.91
2018-11-14T03:28:16.079Z,87.36
2018-11-14T03:29:16.067Z,87.46
2018-11-14T03:30:16.079Z,87.94
2018-11-14T03:31:16.044Z,88.24
2018-11-14T03:32:16.033Z,87.67
2018-11-14T03:33:16.029Z,88.04
2018-11-14T03:34:16.011Z,88.14
2018-11-14T03:35:16.025Z,87.84
2018-11-14T03:36:15.989Z,87.26
2018-11-14T03:37:15.975Z,87.57
2018-11-14T03:38:15.963Z,88.18
2018-11-14T03:39:15.969Z,88.18
2018-11-14T03:40:15.965Z,88.18
2018-11-14T03:41:15.930Z,88.29
2018-11-14T03:42:15.922Z,87.94
2018-11-14T03:43:15.906Z,88.39
2018-11-14T03:44:15.900Z,88.18
2018-11-14T03:45:15.915Z,87.77
2018-11-14T03:46:15.874Z,87.87
2018-11-14T03:47:15.862Z,87.46
2018-11-14T03:48:15.851Z,88.08
2018-11-14T03:49:15.838Z,87.84
2018-11-14T03:50:15.854Z,87.67
2018-11-14T03:51:15.821Z,87.87
2018-11-14T03:52:15.807Z,87.77
2018-11-14T03:53:15.799Z,88.39
2018-11-14T03:54:15.784Z,88.08
2018-11-14T03:55:15.797Z,88.39
2018-11-14T03:56:15.763Z,88.23
2018-11-14T03:57:15.751Z,88.08
2018-11-14T03:58:15.749Z,88.18
2018-11-14T03:59:15.733Z,88.18
2018-11-14T04:00:15.745Z,88.33
2018-11-14T04:01:15.704Z,88.49
2018-11-14T04:02:15.696Z,88.23
2018-11-14T04:03:15.693Z,88.33
2018-11-14T04:04:15.670Z,88.18
2018-11-14T04:05:15.684Z,87.98
2018-11-14T04:06:15.647Z,88.12
2018-11-14T04:07:15.636Z,88.12
2018-11-14T04:08:15.627Z,87.81
2018-11-14T04:09:15.738Z,88.64
2018-11-14T04:10:15.628Z,88.02
2018-11-14T04:11:15.589Z,88.95
2018-11-14T04:12:15.581Z,88.53
2018-11-14T04:13:15.567Z,89.05
2018-11-14T04:14:15.555Z,88.95
2018-11-14T04:15:15.603Z,88.64
2018-11-14T04:16:15.534Z,88.84
2018-11-14T04:17:15.522Z,88.84
2018-11-14T04:18:15.510Z,88.49
2018-11-14T04:19:15.499Z,88.33
2018-11-14T04:20:15.511Z,88.49
2018-11-14T04:21:15.485Z,88.95
2018-11-14T04:22:15.465Z,88.33
2018-11-14T04:23:15.457Z,87.71
2018-11-14T04:24:15.441Z,88.53
2018-11-14T04:25:15.457Z,88.53
2018-11-14T04:26:15.423Z,87.98
2018-11-14T04:27:15.425Z,88.59
2018-11-14T04:28:15.398Z,88.43
2018-11-14T04:29:15.386Z,88.23
2018-11-14T04:30:15.399Z,88.12
2018-11-14T04:31:15.364Z,88.23
2018-11-14T04:32:15.352Z,87.92
2018-11-14T04:33:15.349Z,88.33
2018-11-14T04:34:15.332Z,88.33
2018-11-14T04:35:15.343Z,88.43
2018-11-14T04:36:15.308Z,88.18
2018-11-14T04:37:15.296Z,88.02
2018-11-14T04:38:15.287Z,87.92
2018-11-14T04:39:15.288Z,88.64
2018-11-14T04:40:15.285Z,88.53
2018-11-14T04:41:15.251Z,88.53
2018-11-14T04:42:15.239Z,88.43
2018-11-14T04:43:15.228Z,88.43
2018-11-14T04:44:15.218Z,88.33
2018-11-14T04:45:15.232Z,88.23
2018-11-14T04:46:15.227Z,88.02
2018-11-14T04:47:15.188Z,88.53
2018-11-14T04:48:15.313Z,88.33
2018-11-14T04:49:15.162Z,88.23
2018-11-14T04:50:15.177Z,88.33
2018-11-14T04:51:15.136Z,88.23
2018-11-14T04:52:15.126Z,88.53
2018-11-14T04:53:15.117Z,88.74
2018-11-14T04:54:15.106Z,88.74
2018-11-14T04:55:15.161Z,89.25
2018-11-14T04:56:15.092Z,88.64
2018-11-14T04:57:15.070Z,89.05
2018-11-14T04:58:15.073Z,88.53
2018-11-14T04:59:15.047Z,88.33
2018-11-14T05:00:15.060Z,88.64
2018-11-14T05:01:15.028Z,88.53
2018-11-14T05:02:15.066Z,87.92
2018-11-14T05:03:15.007Z,88.33
2018-11-14T05:04:14.992Z,88.33
2018-11-14T05:05:15.003Z,88.23
2018-11-14T05:06:14.965Z,88.43
2018-11-14T05:07:14.954Z,88.23
2018-11-14T05:08:14.945Z,87.92
2018-11-14T05:09:14.936Z,88.33
2018-11-14T05:10:14.945Z,88.89
2018-11-14T05:11:14.910Z,88.43
2018-11-14T05:12:14.916Z,88.33
2018-11-14T05:13:14.891Z,87.96
2018-11-14T05:14:14.876Z,88.47
2018-11-14T05:15:14.891Z,87.75
2018-11-14T05:16:14.859Z,88.57
2018-11-14T05:17:14.843Z,88.89
2018-11-14T05:18:14.831Z,89.29
2018-11-14T05:19:14.823Z,88.89
2018-11-14T05:20:14.832Z,88.89
2018-11-14T05:21:14.798Z,89.29
2018-11-14T05:22:14.797Z,89.29
2018-11-14T05:23:14.775Z,88.99
2018-11-14T05:24:14.763Z,89.19
2018-11-14T05:25:14.756Z,89.19
2018-11-14T05:26:14.764Z,88.78
2018-11-14T05:27:14.730Z,88.99
2018-11-14T05:28:14.723Z,88.78
2018-11-14T05:29:14.706Z,88.99
2018-11-14T05:30:14.703Z,88.89
2018-11-14T05:31:14.708Z,89.29
2018-11-14T05:32:14.672Z,89.29
2018-11-14T05:33:14.661Z,88.99
2018-11-14T05:34:14.655Z,89.23
2018-11-14T05:35:14.643Z,88.62
2018-11-14T05:36:14.659Z,89.19
2018-11-14T05:37:14.624Z,89.19
2018-11-14T05:38:14.609Z,88.72
2018-11-14T05:39:14.594Z,89.34
2018-11-14T05:40:14.656Z,89.40
2018-11-14T05:41:14.597Z,89.44
2018-11-14T05:42:14.561Z,89.23
2018-11-14T05:43:14.556Z,89.34
2018-11-14T05:44:14.540Z,89.40
2018-11-14T05:45:14.621Z,89.44
2018-11-14T05:46:14.542Z,88.82
2018-11-14T05:47:14.507Z,89.23
2018-11-14T05:48:14.496Z,88.62
2018-11-14T05:49:14.494Z,89.44
2018-11-14T05:50:14.474Z,89.54
2018-11-14T05:51:14.487Z,89.34
2018-11-14T05:52:14.454Z,88.92
2018-11-14T05:53:14.445Z,89.44
2018-11-14T05:54:14.434Z,89.65
2018-11-14T05:55:14.421Z,89.44
2018-11-14T05:56:14.490Z,89.28
2018-11-14T05:57:14.408Z,89.58
2018-11-14T05:58:14.390Z,89.89
2018-11-14T05:59:14.379Z,90.61
2018-11-14T06:00:14.371Z,89.89
2018-11-14T06:01:14.375Z,90.51
2018-11-14T06:02:14.343Z,90.51
2018-11-14T06:03:14.375Z,90.16
2018-11-14T06:04:14.323Z,90.31
2018-11-14T06:05:14.331Z,90.41
2018-11-14T06:06:14.320Z,89.95
2018-11-14T06:07:14.385Z,90.37
2018-11-14T06:08:14.277Z,90.37
2018-11-14T06:09:14.264Z,90.47
2018-11-14T06:10:14.276Z,90.16
2018-11-14T06:11:14.277Z,90.41
2018-11-14T06:12:14.235Z,90.31
2018-11-14T06:13:14.221Z,90.00
2018-11-14T06:14:14.210Z,89.89
2018-11-14T06:15:14.289Z,90.92
2018-11-14T06:16:14.210Z,90.26
2018-11-14T06:17:14.175Z,90.20
2018-11-14T06:18:14.198Z,91.03
2018-11-14T06:19:14.153Z,89.89
2018-11-14T06:20:14.197Z,90.72
2018-11-14T06:21:14.153Z,91.03
2018-11-14T06:22:14.124Z,90.51
2018-11-14T06:23:14.113Z,91.34
2018-11-14T06:24:14.103Z,90.10
2018-11-14T06:25:14.087Z,90.06
2018-11-14T06:26:14.125Z,90.82
2018-11-14T06:27:14.066Z,90.82
2018-11-14T06:28:14.064Z,91.13
2018-11-14T06:29:14.040Z,90.99
2018-11-14T06:30:14.033Z,90.82
2018-11-14T06:31:14.050Z,90.61
2018-11-14T06:32:14.012Z,90.82
2018-11-14T06:33:13.995Z,91.19
2018-11-14T06:34:14.021Z,91.03
2018-11-14T06:35:13.975Z,91.34
2018-11-14T06:36:13.986Z,90.99
2018-11-14T06:37:13.976Z,90.99
2018-11-14T06:38:13.943Z,90.88
2018-11-14T06:39:13.975Z,90.99
2018-11-14T06:40:13.925Z,90.67
2018-11-14T06:41:13.937Z,90.57
2018-11-14T06:42:13.898Z,91.09
2018-11-14T06:43:13.905Z,90.16
2018-11-14T06:44:13.874Z,90.73
2018-11-14T06:45:13.862Z,90.67
2018-11-14T06:46:13.915Z,90.53
2018-11-14T06:47:13.853Z,90.33
2018-11-14T06:48:13.832Z,90.43
2018-11-14T06:49:13.823Z,90.33
2018-11-14T06:50:13.813Z,90.43
2018-11-14T06:51:13.820Z,90.22
2018-11-14T06:52:13.783Z,90.22
2018-11-14T06:53:13.792Z,90.01
2018-11-14T06:54:13.762Z,90.43
2018-11-14T06:55:13.750Z,90.33
2018-11-14T06:56:13.771Z,90.01
2018-11-14T06:57:13.735Z,90.73
2018-11-14T06:58:13.757Z,91.09
2018-11-14T06:59:13.763Z,91.05
2018-11-14T07:00:13.701Z,90.53
2018-11-14T07:01:13.682Z,90.53
2018-11-14T07:02:13.695Z,90.73
2018-11-14T07:03:13.711Z,90.64
2018-11-14T07:04:13.686Z,90.53
2018-11-14T07:05:13.760Z,90.94
2018-11-14T07:06:13.736Z,90.33
2018-11-14T07:07:13.618Z,90.94
2018-11-14T07:08:13.602Z,90.94
2018-11-14T07:09:13.597Z,90.53
2018-11-14T07:10:13.582Z,90.12
2018-11-14T07:11:13.646Z,89.81
2018-11-14T07:12:13.580Z,90.01
2018-11-14T07:13:13.547Z,90.94
2018-11-14T07:14:13.534Z,90.53
2018-11-14T07:15:13.550Z,90.01
2018-11-14T07:16:13.511Z,90.12
2018-11-14T07:17:13.530Z,90.12
2018-11-14T07:18:13.489Z,89.81
2018-11-14T07:19:13.480Z,90.43
2018-11-14T07:20:13.479Z,90.33
2018-11-14T07:21:13.462Z,90.12
2018-11-14T07:22:13.469Z,90.01
2018-11-14T07:23:13.473Z,91.05
2018-11-14T07:24:13.436Z,90.64
2018-11-14T07:25:13.409Z,90.53
2018-11-14T07:26:13.401Z,90.53
2018-11-14T07:27:13.416Z,90.49
2018-11-14T07:28:13.381Z,90.49
2018-11-14T07:29:13.365Z,90.80
2018-11-14T07:30:13.353Z,89.87
2018-11-14T07:31:13.348Z,90.28
2018-11-14T07:32:13.427Z,91.11
2018-11-14T07:33:13.322Z,90.28
2018-11-14T07:34:13.313Z,89.87
2018-11-14T07:35:13.297Z,90.08
2018-11-14T07:36:13.287Z,90.39
2018-11-14T07:37:13.297Z,89.25
2018-11-14T07:38:13.268Z,89.05
2018-11-14T07:39:13.248Z,89.22
2018-11-14T07:40:13.246Z,89.15
2018-11-14T07:41:13.256Z,88.84
2018-11-14T07:42:13.240Z,89.56
2018-11-14T07:43:13.204Z,90.24
2018-11-14T07:44:13.192Z,90.28
2018-11-14T07:45:13.225Z,90.28
2018-11-14T07:46:13.176Z,90.28
2018-11-14T07:47:13.182Z,90.45
2018-11-14T07:48:13.153Z,90.08
2018-11-14T07:49:13.142Z,90.03
2018-11-14T07:50:13.200Z,89.56
2018-11-14T07:51:13.112Z,89.62
2018-11-14T07:52:13.126Z,89.67
2018-11-14T07:53:13.086Z,89.94
2018-11-14T07:54:13.090Z,89.97
2018-11-14T07:55:13.069Z,90.18
2018-11-14T07:56:13.056Z,89.94
2018-11-14T07:57:13.070Z,89.52
2018-11-14T07:58:13.041Z,89.11
2018-11-14T07:59:13.019Z,89.31
2018-11-14T08:00:13.010Z,89.11
2018-11-14T08:01:12.994Z,89.15
2018-11-14T08:02:13.162Z,88.80
2018-11-14T08:03:12.982Z,89.31
2018-11-14T08:04:12.961Z,89.42
2018-11-14T08:05:12.954Z,89.28
2018-11-14T08:06:12.939Z,89.01
2018-11-14T08:07:12.952Z,88.45
2018-11-14T08:08:12.935Z,88.86
2018-11-14T08:09:12.956Z,88.56
2018-11-14T08:10:12.909Z,88.76
2018-11-14T08:11:12.892Z,88.66
2018-11-14T08:12:12.896Z,88.66
2018-11-14T08:13:12.869Z,88.45
2018-11-14T08:14:12.847Z,87.84
2018-11-14T08:15:12.837Z,88.20
2018-11-14T08:16:12.833Z,88.04
2018-11-14T08:17:12.840Z,88.10
2018-11-14T08:18:12.819Z,88.00
2018-11-14T08:19:12.794Z,87.69
2018-11-14T08:20:12.791Z,87.79
2018-11-14T08:21:12.772Z,88.00
2018-11-14T08:22:12.787Z,87.38
2018-11-14T08:23:12.748Z,87.90
2018-11-14T08:24:12.747Z,87.18
2018-11-14T08:25:12.798Z,87.28
2018-11-14T08:26:12.717Z,87.34
2018-11-14T08:27:12.728Z,87.24
2018-11-14T08:28:12.693Z,87.24
2018-11-14T08:29:12.695Z,87.24
2018-11-14T08:30:12.671Z,87.34
2018-11-14T08:31:12.661Z,87.24
2018-11-14T08:32:12.673Z,87.13
2018-11-14T08:33:12.646Z,86.32
2018-11-14T08:34:12.632Z,86.93
2018-11-14T08:35:12.618Z,86.11
2018-11-14T08:36:12.603Z,85.80
2018-11-14T08:37:12.687Z,85.66
2018-11-14T08:38:12.590Z,85.70
2018-11-14T08:39:12.640Z,85.76
2018-11-14T08:40:12.563Z,85.55
2018-11-14T08:41:12.549Z,85.55
2018-11-14T08:42:12.564Z,85.35
2018-11-14T08:43:12.533Z,85.14
2018-11-14T08:44:12.522Z,84.94
2018-11-14T08:45:12.506Z,85.25
2018-11-14T08:46:12.503Z,85.14
2018-11-14T08:47:12.507Z,84.94
2018-11-14T08:48:12.471Z,85.46
2018-11-14T08:49:12.471Z,85.55
2018-11-14T08:50:12.546Z,85.41
2018-11-14T08:51:12.438Z,84.84
2018-11-14T08:52:12.452Z,85.25
2018-11-14T08:53:12.417Z,84.90
2018-11-14T08:54:12.414Z,85.11
2018-11-14T08:55:12.396Z,85.11
2018-11-14T08:56:12.398Z,85.31
2018-11-14T08:57:12.399Z,85.14
2018-11-14T08:58:12.364Z,85.25
2018-11-14T08:59:12.350Z,84.90
2018-11-14T09:00:12.338Z,85.21
2018-11-14T09:01:12.327Z,84.69
2018-11-14T09:02:12.319Z,85.14
2018-11-14T09:03:12.326Z,85.41
2018-11-14T09:04:12.350Z,84.90
2018-11-14T09:05:12.287Z,85.31
2018-11-14T09:06:12.314Z,83.63
2018-11-14T09:07:12.265Z,84.25
2018-11-14T09:08:12.287Z,83.73
2018-11-14T09:09:12.241Z,83.53
2018-11-14T09:10:12.227Z,83.42
2018-11-14T09:11:12.405Z,83.69
2018-11-14T09:12:12.261Z,83.69
2018-11-14T09:13:12.312Z,83.28
2018-11-14T09:14:12.184Z,83.28
2018-11-14T09:15:12.325Z,83.18
2018-11-14T09:16:12.191Z,82.67
2018-11-14T09:17:12.158Z,82.97
2018-11-14T09:18:12.223Z,82.77
2018-11-14T09:19:12.129Z,82.77
2018-11-14T09:20:12.116Z,82.87
2018-11-14T09:21:12.106Z,82.26
2018-11-14T09:22:12.099Z,82.15
2018-11-14T09:23:12.107Z,82.87
2018-11-14T09:24:12.083Z,82.67
2018-11-14T09:25:12.066Z,82.46
2018-11-14T09:26:12.048Z,82.12
2018-11-14T09:27:12.087Z,82.12
2018-11-14T09:28:12.121Z,82.53
2018-11-14T09:29:12.014Z,81.91
2018-11-14T09:30:12.006Z,81.91
2018-11-14T09:31:12.016Z,82.12
2018-11-14T09:32:11.991Z,81.29
2018-11-14T09:33:12.073Z,81.20
2018-11-14T09:34:11.968Z,80.99
2018-11-14T09:35:11.947Z,81.29
2018-11-14T09:36:11.937Z,81.50
2018-11-14T09:37:11.927Z,81.09
2018-11-14T09:38:11.940Z,80.74
2018-11-14T09:39:11.934Z,80.64
2018-11-14T09:40:11.895Z,81.15
2018-11-14T09:41:11.896Z,80.99
2018-11-14T09:42:11.873Z,81.20
2018-11-14T09:43:11.891Z,81.40
2018-11-14T09:44:11.849Z,81.29
2018-11-14T09:45:11.837Z,81.60
2018-11-14T09:46:11.826Z,81.71
2018-11-14T09:47:11.815Z,81.26
2018-11-14T09:48:11.833Z,81.20
2018-11-14T09:49:11.833Z,81.29
2018-11-14T09:50:11.778Z,81.09
2018-11-14T09:51:11.768Z,81.26
2018-11-14T09:52:11.761Z,80.95
2018-11-14T09:53:11.809Z,80.95
2018-11-14T09:54:11.736Z,80.85
2018-11-14T09:55:11.724Z,80.74
2018-11-14T09:56:11.711Z,81.36
2018-11-14T09:57:11.705Z,82.28
2018-11-14T09:58:11.716Z,81.26
2018-11-14T09:59:11.678Z,81.01
2018-11-14T10:00:11.672Z,80.51
2018-11-14T10:01:11.659Z,80.60
2018-11-14T10:02:11.649Z,80.95
2018-11-14T10:03:11.659Z,81.05
2018-11-14T10:04:11.625Z,80.64
2018-11-14T10:05:11.611Z,81.09
2018-11-14T10:06:11.668Z,80.78
2018-11-14T10:07:11.588Z,81.81
2018-11-14T10:08:11.614Z,81.50
2018-11-14T10:09:11.569Z,82.12
2018-11-14T10:10:11.556Z,81.40
2018-11-14T10:11:11.548Z,82.01
2018-11-14T10:12:11.535Z,81.29
2018-11-14T10:13:11.547Z,81.91
2018-11-14T10:14:11.520Z,81.71
2018-11-14T10:15:11.500Z,81.60
2018-11-14T10:16:11.489Z,81.50
2018-11-14T10:17:11.480Z,81.81
2018-11-14T10:18:11.492Z,82.22
2018-11-14T10:19:11.456Z,83.86
2018-11-14T10:20:11.444Z,82.32
2018-11-14T10:21:11.459Z,82.67
2018-11-14T10:22:11.423Z,82.63
2018-11-14T10:23:11.436Z,82.83
2018-11-14T10:24:11.405Z,83.69
2018-11-14T10:25:11.389Z,82.87
2018-11-14T10:26:11.377Z,82.73
2018-11-14T10:27:11.369Z,82.97
2018-11-14T10:28:11.381Z,83.39
2018-11-14T10:29:11.353Z,83.39
2018-11-14T10:30:11.344Z,82.63
2018-11-14T10:31:11.323Z,82.05
2018-11-14T10:32:11.309Z,82.05
2018-11-14T10:33:11.329Z,82.77
2018-11-14T10:34:11.288Z,83.49
2018-11-14T10:35:11.278Z,83.59
2018-11-14T10:36:11.273Z,83.69
2018-11-14T10:37:11.254Z,83.80
2018-11-14T10:38:11.268Z,83.80
2018-11-14T10:39:11.233Z,83.34
2018-11-14T10:40:11.222Z,83.34
2018-11-14T10:41:11.210Z,83.04
2018-11-14T10:42:11.199Z,83.65
2018-11-14T10:43:11.364Z,83.45
2018-11-14T10:44:11.176Z,82.63
2018-11-14T10:45:11.183Z,82.83
2018-11-14T10:46:11.154Z,83.04
2018-11-14T10:47:11.144Z,83.34
2018-11-14T10:48:11.162Z,83.45
2018-11-14T10:49:11.120Z,83.25
2018-11-14T10:50:11.108Z,83.72
2018-11-14T10:51:11.221Z,83.04
2018-11-14T10:52:11.088Z,82.59
2018-11-14T10:53:11.104Z,82.18
2018-11-14T10:54:11.195Z,82.08
2018-11-14T10:55:11.113Z,82.08
2018-11-14T10:56:11.068Z,82.49
2018-11-14T10:57:11.046Z,82.69
2018-11-14T10:58:11.031Z,82.49
2018-11-14T10:59:11.032Z,81.67
2018-11-14T11:00:10.999Z,81.57
2018-11-14T11:01:10.987Z,81.98
2018-11-14T11:02:10.976Z,81.94
2018-11-14T11:03:10.996Z,81.46
2018-11-14T11:04:10.956Z,82.28
2018-11-14T11:05:10.940Z,81.46
2018-11-14T11:06:10.933Z,81.63
2018-11-14T11:07:10.919Z,82.14
2018-11-14T11:08:11.054Z,82.04
2018-11-14T11:09:10.923Z,82.14
2018-11-14T11:10:10.895Z,81.32
2018-11-14T11:11:10.880Z,81.43
2018-11-14T11:12:10.868Z,81.94
2018-11-14T11:13:10.852Z,81.79
2018-11-14T11:14:10.888Z,81.59
2018-11-14T11:15:10.831Z,81.49
2018-11-14T11:16:10.820Z,81.08
2018-11-14T11:17:10.830Z,81.08
2018-11-14T11:18:10.795Z,80.88
2018-11-14T11:19:10.807Z,80.94
2018-11-14T11:20:10.772Z,80.77
2018-11-14T11:21:10.765Z,80.33
2018-11-14T11:22:10.756Z,81.04
2018-11-14T11:23:10.813Z,80.63
2018-11-14T11:24:10.754Z,80.63
2018-11-14T11:25:10.721Z,80.43
2018-11-14T11:26:10.708Z,80.22
2018-11-14T11:27:10.695Z,80.12
2018-11-14T11:28:10.684Z,80.02
2018-11-14T11:29:10.700Z,80.12
2018-11-14T11:30:10.664Z,80.12
2018-11-14T11:31:10.657Z,80.02
2018-11-14T11:32:10.834Z,80.02
2018-11-14T11:33:10.643Z,79.71
2018-11-14T11:34:10.648Z,79.68
2018-11-14T11:35:10.627Z,79.78
2018-11-14T11:36:10.598Z,79.68
2018-11-14T11:37:10.589Z,79.57
2018-11-14T11:38:10.582Z,79.78
2018-11-14T11:39:10.657Z,79.57
2018-11-14T11:40:10.553Z,79.27
2018-11-14T11:41:10.539Z,79.37
2018-11-14T11:42:10.534Z,78.92
2018-11-14T11:43:10.518Z,78.55
2018-11-14T11:44:10.562Z,79.02
2018-11-14T11:45:10.499Z,78.86
2018-11-14T11:46:10.485Z,79.02
2018-11-14T11:47:10.475Z,78.92
2018-11-14T11:48:10.462Z,78.52
2018-11-14T11:49:10.487Z,78.61
2018-11-14T11:50:10.440Z,78.31
2018-11-14T11:51:10.500Z,78.11
2018-11-14T11:52:10.420Z,77.80
2018-11-14T11:53:10.406Z,77.35
2018-11-14T11:54:10.421Z,77.04
2018-11-14T11:55:10.384Z,76.84
2018-11-14T11:56:10.373Z,76.84
2018-11-14T11:57:10.362Z,76.74
2018-11-14T11:58:10.390Z,76.53
2018-11-14T11:59:10.368Z,76.74
2018-11-14T12:00:10.495Z,76.60
2018-11-14T12:01:10.323Z,76.43
2018-11-14T12:02:10.373Z,76.64
2018-11-14T12:03:10.294Z,76.60
2018-11-14T12:04:10.308Z,76.50
2018-11-14T12:05:10.274Z,76.70
2018-11-14T12:06:10.393Z,75.89
2018-11-14T12:07:10.251Z,76.40
2018-11-14T12:08:10.244Z,75.17
2018-11-14T12:09:10.257Z,75.27
2018-11-14T12:10:10.219Z,75.17
2018-11-14T12:11:10.205Z,74.97
2018-11-14T12:12:10.195Z,73.60
2018-11-14T12:13:10.205Z,74.22
2018-11-14T12:14:10.183Z,74.63
2018-11-14T12:15:10.185Z,74.73
2018-11-14T12:16:10.150Z,75.04
2018-11-14T12:17:10.145Z,74.83
2018-11-14T12:18:10.135Z,74.11
2018-11-14T12:19:10.190Z,73.81
2018-11-14T12:20:10.131Z,73.27
2018-11-14T12:21:10.095Z,73.36
2018-11-14T12:22:10.087Z,74.01
2018-11-14T12:23:10.078Z,73.88
2018-11-14T12:24:10.089Z,73.57
2018-11-14T12:25:10.072Z,73.16
2018-11-14T12:26:10.047Z,73.27
2018-11-14T12:27:10.079Z,73.16
2018-11-14T12:28:10.015Z,73.27
2018-11-14T12:29:10.010Z,72.92
2018-11-14T12:30:10.162Z,73.33
2018-11-14T12:31:10.121Z,73.84
2018-11-14T12:32:09.971Z,72.72
2018-11-14T12:33:09.958Z,72.41
2018-11-14T12:34:09.950Z,72.82
2018-11-14T12:35:09.970Z,72.82
2018-11-14T12:36:09.928Z,72.72
2018-11-14T12:37:09.928Z,72.62
2018-11-14T12:38:09.905Z,73.13
2018-11-14T12:39:09.896Z,73.23
2018-11-14T12:40:09.903Z,72.52
2018-11-14T12:41:09.868Z,72.41
2018-11-14T12:42:09.862Z,72.72
2018-11-14T12:43:09.863Z,72.69
2018-11-14T12:44:09.842Z,72.72
2018-11-14T12:45:09.925Z,72.08
2018-11-14T12:46:09.817Z,72.69
2018-11-14T12:47:09.801Z,72.79
2018-11-14T12:48:09.795Z,72.79
2018-11-14T12:49:09.796Z,72.89
2018-11-14T12:50:09.797Z,72.58
2018-11-14T12:51:09.757Z,72.58
2018-11-14T12:52:09.747Z,71.97